Time;durP1;ratioP1;P1;durP2;ratioP2;P2;SDS_P1;SDS_P2;PMS_P1;PMS_P2;Temp;Humidity;BMP_temperature;BMP_pressure;BME280_temperature;BME280_humidity;BME280_pressure;Samples;Min_cycle;Max_cycle;Signal;HPM_P1;HPM_P2
2022/10/14 00:02:32;;;;;;;;;;;11.30;99.90;;;;;;8379594;28;20015;-83
2022/10/14 00:06:34;;;;;;;;;;;11.30;99.90;;;;;;8402529;28;19963;-83
2022/10/14 00:10:37;;;;;;;;;;;11.30;99.90;;;;;;8397059;28;19931;-83
2022/10/14 00:14:39;;;;;;;;;;;11.30;99.90;;;;;;8401870;28;19930;-83
2022/10/14 00:18:40;;;;;;;;;;;11.30;99.90;;;;;;8388166;28;19957;-82
2022/10/14 00:22:42;;;;;;;;;;;11.30;99.90;;;;;;8402060;28;20007;-83
2022/10/14 00:26:45;;;;;;;;;;;11.30;99.90;;;;;;8395456;28;20619;-83
2022/10/14 00:30:53;;;;;;;;;;;11.30;99.90;;;;;;8396575;28;19923;-82
2022/10/14 00:34:55;;;;;;;;;;;11.20;99.90;;;;;;8394966;28;20302;-83
2022/10/14 00:38:56;;;;;;;;;;;11.20;99.90;;;;;;8396990;28;19939;-83
2022/10/14 00:42:58;;;;;;;;;;;11.20;99.90;;;;;;8395876;28;19925;-84
2022/10/14 00:47:00;;;;;;;;;;;11.20;99.90;;;;;;8398383;28;19924;-83
2022/10/14 00:51:02;;;;;;;;;;;11.20;99.90;;;;;;8381182;28;19924;-84
2022/10/14 00:55:06;;;;;;;;;;;11.10;99.90;;;;;;8389194;28;19929;-83
2022/10/14 00:59:07;;;;;;;;;;;11.10;99.90;;;;;;8400990;28;19924;-84
2022/10/14 01:03:16;;;;;;;;;;;11.10;99.90;;;;;;8382902;28;19957;-83
2022/10/14 01:07:30;;;;;;;;;;;11.10;99.90;;;;;;8401231;28;19951;-84
2022/10/14 01:11:49;;;;;;;;;;;11.10;99.90;;;;;;8400264;28;19932;-83
2022/10/14 01:16:19;;;;;;;;;;;11.10;99.90;;;;;;8406993;28;19990;-83
2022/10/14 01:20:39;;;;;;;;;;;11.10;99.90;;;;;;8402614;28;19928;-84
2022/10/14 01:24:43;;;;;;;;;;;11.10;99.90;;;;;;8400321;28;19932;-83
2022/10/14 01:28:53;;;;;;;;;;;11.10;99.90;;;;;;8383028;28;19924;-83
2022/10/14 01:33:01;;;;;;;;;;;11.10;99.90;;;;;;8383568;28;19928;-84
2022/10/14 01:37:07;;;;;;;;;;;11.10;99.90;;;;;;8383251;28;19925;-83
2022/10/14 01:41:21;;;;;;;;;;;11.20;99.90;;;;;;8414293;28;19928;-83
2022/10/14 01:45:23;;;;;;;;;;;11.20;99.90;;;;;;8386432;28;19938;-83
2022/10/14 01:49:34;;;;;;;;;;;11.20;99.90;;;;;;8402596;28;19932;-83
2022/10/14 01:53:41;;;;;;;;;;;11.30;99.90;;;;;;8387324;28;20019;-83
2022/10/14 01:57:43;;;;;;;;;;;11.30;99.90;;;;;;8397283;28;20286;-83
2022/10/14 02:01:44;;;;;;;;;;;11.40;99.90;;;;;;8383522;28;19932;-83
2022/10/14 02:05:56;;;;;;;;;;;11.40;99.90;;;;;;8403787;28;19925;-83
2022/10/14 02:10:01;;;;;;;;;;;11.50;99.90;;;;;;8391509;28;19967;-83
2022/10/14 02:14:07;;;;;;;;;;;11.50;99.90;;;;;;8399169;28;20860;-83
2022/10/14 02:18:13;;;;;;;;;;;11.50;99.90;;;;;;8402155;28;19924;-84
2022/10/14 02:22:18;;;;;;;;;;;11.50;99.90;;;;;;8402698;28;19924;-83
2022/10/14 02:26:21;;;;;;;;;;;11.60;99.90;;;;;;8396786;28;19925;-83
2022/10/14 02:30:24;;;;;;;;;;;11.60;99.90;;;;;;8399342;28;20446;-83
2022/10/14 02:34:26;;;;;;;;;;;11.60;99.90;;;;;;8382826;28;19932;-83
2022/10/14 02:38:28;;;;;;;;;;;11.70;99.90;;;;;;8405571;28;20373;-84
2022/10/14 02:42:30;;;;;;;;;;;11.70;99.90;;;;;;8396189;28;20426;-84
2022/10/14 02:46:32;;;;;;;;;;;11.70;99.90;;;;;;8397590;28;19932;-84
2022/10/14 02:50:34;;;;;;;;;;;11.70;99.90;;;;;;8391862;28;19931;-83
2022/10/14 02:54:36;;;;;;;;;;;11.70;99.90;;;;;;8400390;28;19986;-83
2022/10/14 02:58:37;;;;;;;;;;;11.70;99.90;;;;;;8398783;28;20003;-84
2022/10/14 03:02:39;;;;;;;;;;;11.70;99.90;;;;;;8393026;28;19925;-83
2022/10/14 03:06:41;;;;;;;;;;;11.80;99.90;;;;;;8399722;28;20333;-84
2022/10/14 03:10:44;;;;;;;;;;;11.80;99.90;;;;;;8375076;28;19951;-84
2022/10/14 03:14:46;;;;;;;;;;;11.80;99.90;;;;;;8397039;28;19929;-84
2022/10/14 03:18:48;;;;;;;;;;;11.80;99.90;;;;;;8366530;28;19924;-83
2022/10/14 03:22:49;;;;;;;;;;;11.80;99.90;;;;;;8404836;28;20372;-83
2022/10/14 03:26:51;;;;;;;;;;;11.80;99.90;;;;;;8380488;28;20348;-84
2022/10/14 03:30:52;;;;;;;;;;;11.80;99.90;;;;;;8387341;28;19925;-83
2022/10/14 03:34:54;;;;;;;;;;;11.80;99.90;;;;;;8384995;28;19928;-83
2022/10/14 03:38:56;;;;;;;;;;;11.90;99.90;;;;;;8382203;28;19924;-83
2022/10/14 03:42:59;;;;;;;;;;;11.90;99.90;;;;;;8403330;28;19931;-82
2022/10/14 03:47:01;;;;;;;;;;;11.90;99.90;;;;;;8411269;28;19938;-82
2022/10/14 03:51:03;;;;;;;;;;;11.90;99.90;;;;;;8383451;28;19924;-81
2022/10/14 03:55:05;;;;;;;;;;;12.00;99.90;;;;;;8403090;28;20009;-81
2022/10/14 03:59:07;;;;;;;;;;;12.00;99.90;;;;;;8396456;28;19935;-82
2022/10/14 04:03:08;;;;;;;;;;;12.00;99.90;;;;;;8391196;28;20011;-82
2022/10/14 04:07:10;;;;;;;;;;;12.00;99.90;;;;;;8396508;28;19936;-82
2022/10/14 04:11:11;;;;;;;;;;;12.00;99.90;;;;;;8381460;28;19938;-82
2022/10/14 04:15:13;;;;;;;;;;;12.10;99.90;;;;;;8384250;28;19935;-82
2022/10/14 04:19:15;;;;;;;;;;;12.10;99.90;;;;;;8400374;28;19928;-82
2022/10/14 04:23:16;;;;;;;;;;;12.10;99.90;;;;;;8398917;28;19929;-82
2022/10/14 04:27:18;;;;;;;;;;;12.10;99.90;;;;;;8391430;28;19924;-82
2022/10/14 04:31:21;;;;;;;;;;;12.20;99.90;;;;;;8367019;28;19931;-81
2022/10/14 04:35:23;;;;;;;;;;;12.20;99.90;;;;;;8389261;28;19928;-81
2022/10/14 04:39:24;;;;;;;;;;;12.20;99.90;;;;;;8383248;28;19931;-81
2022/10/14 04:43:26;;;;;;;;;;;12.30;99.90;;;;;;8406576;28;19937;-81
2022/10/14 04:47:27;;;;;;;;;;;12.30;99.90;;;;;;8393355;28;20338;-81
2022/10/14 04:51:29;;;;;;;;;;;12.30;99.90;;;;;;8391120;28;19928;-82
2022/10/14 04:55:31;;;;;;;;;;;12.40;99.90;;;;;;8390883;28;20581;-82
2022/10/14 04:59:33;;;;;;;;;;;12.40;99.90;;;;;;8388117;28;20396;-81
2022/10/14 05:03:34;;;;;;;;;;;12.40;99.90;;;;;;8392987;28;19932;-82
2022/10/14 05:07:36;;;;;;;;;;;12.40;99.90;;;;;;8392278;28;19924;-81
2022/10/14 05:11:38;;;;;;;;;;;12.50;99.90;;;;;;8365294;28;19931;-81
2022/10/14 05:15:39;;;;;;;;;;;12.50;99.90;;;;;;8391777;28;19931;-80
2022/10/14 05:19:41;;;;;;;;;;;12.50;99.90;;;;;;8380100;28;20295;-82
2022/10/14 05:23:43;;;;;;;;;;;12.60;99.90;;;;;;8378001;28;20050;-81
2022/10/14 05:27:44;;;;;;;;;;;12.60;99.90;;;;;;8385065;28;19925;-81
2022/10/14 05:31:46;;;;;;;;;;;12.60;99.90;;;;;;8381160;28;20434;-81
2022/10/14 05:35:48;;;;;;;;;;;12.70;99.90;;;;;;8398720;28;20019;-82
2022/10/14 05:40:05;;;;;;;;;;;12.70;99.90;;;;;;8397467;28;20383;-81
2022/10/14 05:44:09;;;;;;;;;;;12.70;99.90;;;;;;8396694;28;19929;-81
2022/10/14 05:48:10;;;;;;;;;;;12.80;99.90;;;;;;8396993;28;19933;-82
2022/10/14 05:52:12;;;;;;;;;;;12.80;99.90;;;;;;8376396;28;19924;-81
2022/10/14 05:56:14;;;;;;;;;;;12.90;99.90;;;;;;8397356;28;19924;-81
2022/10/14 06:00:18;;;;;;;;;;;12.90;99.90;;;;;;8402080;28;19928;-82
2022/10/14 06:04:25;;;;;;;;;;;13.00;99.90;;;;;;8401053;28;19924;-81
2022/10/14 06:08:26;;;;;;;;;;;13.00;99.90;;;;;;8394746;28;19932;-82
2022/10/14 06:12:28;;;;;;;;;;;13.00;99.90;;;;;;8403510;28;19928;-81
2022/10/14 06:16:30;;;;;;;;;;;13.00;99.90;;;;;;8393961;28;19970;-81
2022/10/14 06:20:32;;;;;;;;;;;13.10;99.90;;;;;;8392353;28;19939;-80
2022/10/14 06:24:33;;;;;;;;;;;13.10;99.90;;;;;;8392969;28;20570;-81
2022/10/14 06:28:36;;;;;;;;;;;13.10;99.90;;;;;;8394542;28;19994;-82
2022/10/14 06:32:37;;;;;;;;;;;13.10;99.90;;;;;;8399067;28;19979;-83
2022/10/14 06:36:39;;;;;;;;;;;13.10;99.90;;;;;;8392784;28;20389;-82
2022/10/14 06:40:40;;;;;;;;;;;13.20;99.90;;;;;;8379618;28;19924;-81
2022/10/14 06:44:42;;;;;;;;;;;13.20;99.90;;;;;;8384223;28;19940;-82
2022/10/14 06:48:44;;;;;;;;;;;13.20;99.90;;;;;;8353042;28;19935;-81
2022/10/14 06:52:50;;;;;;;;;;;13.20;99.90;;;;;;8374757;28;19924;-82
2022/10/14 06:56:52;;;;;;;;;;;13.20;99.90;;;;;;8386669;28;20038;-81
2022/10/14 07:00:53;;;;;;;;;;;13.30;99.90;;;;;;8395914;28;19989;-81
2022/10/14 07:04:55;;;;;;;;;;;13.30;99.90;;;;;;8393778;28;20043;-82
2022/10/14 07:08:57;;;;;;;;;;;13.30;99.90;;;;;;8384512;28;19928;-81
2022/10/14 07:12:58;;;;;;;;;;;13.30;99.90;;;;;;8390653;28;20362;-83
2022/10/14 07:17:00;;;;;;;;;;;13.40;99.90;;;;;;8381988;28;19925;-81
2022/10/14 07:21:03;;;;;;;;;;;13.40;99.90;;;;;;8387050;28;19925;-82
2022/10/14 07:25:05;;;;;;;;;;;13.40;99.90;;;;;;8392954;28;20007;-82
2022/10/14 07:29:07;;;;;;;;;;;13.40;99.90;;;;;;8382491;28;20008;-80
2022/10/14 07:33:08;;;;;;;;;;;13.50;99.90;;;;;;8390771;28;20015;-83
2022/10/14 07:37:10;;;;;;;;;;;13.50;99.90;;;;;;8393713;28;19939;-81
2022/10/14 07:41:16;;;;;;;;;;;13.50;99.90;;;;;;8393489;28;19978;-82
2022/10/14 07:45:20;;;;;;;;;;;13.60;99.90;;;;;;8387650;28;19932;-82
2022/10/14 07:49:21;;;;;;;;;;;13.60;99.90;;;;;;8384737;28;20433;-82
2022/10/14 07:53:24;;;;;;;;;;;13.60;99.90;;;;;;8392851;28;20019;-81
2022/10/14 07:57:26;;;;;;;;;;;13.60;99.90;;;;;;8402285;28;19939;-82
2022/10/14 08:01:28;;;;;;;;;;;13.70;99.90;;;;;;8391025;28;19935;-81
2022/10/14 08:05:30;;;;;;;;;;;13.70;99.90;;;;;;8393129;28;20383;-81
2022/10/14 08:09:39;;;;;;;;;;;13.70;99.90;;;;;;8369353;28;19968;-81
2022/10/14 08:13:41;;;;;;;;;;;13.80;99.90;;;;;;8392044;28;20459;-81
2022/10/14 08:17:46;;;;;;;;;;;13.80;99.90;;;;;;8386241;28;20806;-81
2022/10/14 08:21:48;;;;;;;;;;;13.80;99.90;;;;;;8392090;28;19939;-83
2022/10/14 08:25:49;;;;;;;;;;;13.80;99.90;;;;;;8394698;28;19931;-80
2022/10/14 08:29:51;;;;;;;;;;;13.90;99.90;;;;;;8396600;28;19931;-81
2022/10/14 08:33:53;;;;;;;;;;;13.90;99.90;;;;;;8390812;28;19932;-80
2022/10/14 08:37:55;;;;;;;;;;;14.00;99.90;;;;;;8394675;28;20415;-81
2022/10/14 08:42:15;;;;;;;;;;;14.00;99.90;;;;;;8384027;28;19972;-82
2022/10/14 08:46:25;;;;;;;;;;;14.00;99.90;;;;;;8396080;28;19928;-81
2022/10/14 08:50:31;;;;;;;;;;;14.10;99.90;;;;;;8381273;28;19982;-82
2022/10/14 08:54:37;;;;;;;;;;;14.10;99.90;;;;;;8380398;28;19924;-80
2022/10/14 08:58:39;;;;;;;;;;;14.20;99.90;;;;;;8377032;28;19928;-82
2022/10/14 09:02:48;;;;;;;;;;;14.20;99.90;;;;;;8377047;28;19932;-81
2022/10/14 09:06:50;;;;;;;;;;;14.30;99.90;;;;;;8372287;28;20011;-81
2022/10/14 09:10:52;;;;;;;;;;;14.30;99.90;;;;;;8392973;28;19931;-80
2022/10/14 09:15:11;;;;;;;;;;;14.30;99.90;;;;;;8387994;28;20331;-80
2022/10/14 09:19:25;;;;;;;;;;;14.40;99.90;;;;;;8389034;28;20397;-82
2022/10/14 09:23:27;;;;;;;;;;;14.40;99.90;;;;;;8389184;28;19932;-82
2022/10/14 09:27:29;;;;;;;;;;;14.40;99.90;;;;;;8375817;28;19935;-82
2022/10/14 09:31:31;;;;;;;;;;;14.50;99.90;;;;;;8388853;28;19928;-82
2022/10/14 09:35:41;;;;;;;;;;;14.50;99.90;;;;;;8379990;28;20501;-81
2022/10/14 09:39:43;;;;;;;;;;;14.50;99.90;;;;;;8402982;28;19932;-80
2022/10/14 09:44:03;;;;;;;;;;;14.60;99.90;;;;;;8386247;28;19931;-81
2022/10/14 09:48:08;;;;;;;;;;;14.60;99.90;;;;;;8389108;28;19930;-80
2022/10/14 09:52:20;;;;;;;;;;;14.70;99.90;;;;;;8389620;28;19971;-81
2022/10/14 09:56:29;;;;;;;;;;;14.70;99.90;;;;;;8393887;28;20012;-82
2022/10/14 10:00:31;;;;;;;;;;;14.70;99.90;;;;;;8391989;28;19925;-82
2022/10/14 10:04:35;;;;;;;;;;;14.70;99.90;;;;;;8385791;28;20043;-82
2022/10/14 10:08:38;;;;;;;;;;;14.70;99.90;;;;;;8388302;28;19928;-83
2022/10/14 10:12:45;;;;;;;;;;;14.70;99.90;;;;;;8366885;28;20414;-82
2022/10/14 10:16:47;;;;;;;;;;;14.70;99.90;;;;;;8346348;28;19925;-83
2022/10/14 10:21:05;;;;;;;;;;;14.80;99.90;;;;;;8347802;28;19929;-83
2022/10/14 10:25:07;;;;;;;;;;;14.80;99.90;;;;;;8353800;28;19925;-83
2022/10/14 10:29:21;;;;;;;;;;;14.80;99.90;;;;;;8361731;28;19948;-82
2022/10/14 10:33:25;;;;;;;;;;;14.80;99.90;;;;;;8359641;28;19999;-82
2022/10/14 10:37:49;;;;;;;;;;;14.80;99.90;;;;;;8356647;28;20373;-81
2022/10/14 10:42:14;;;;;;;;;;;14.90;99.90;;;;;;8363954;28;19931;-82
2022/10/14 10:46:15;;;;;;;;;;;14.90;99.90;;;;;;8353488;28;19925;-82
2022/10/14 10:50:27;;;;;;;;;;;14.90;99.90;;;;;;8349607;28;19935;-82
2022/10/14 10:54:38;;;;;;;;;;;15.00;99.90;;;;;;8361790;28;19925;-82
2022/10/14 10:58:53;;;;;;;;;;;14.90;99.90;;;;;;8369987;28;19931;-83
2022/10/14 11:03:18;;;;;;;;;;;14.90;99.90;;;;;;8377476;28;19931;-83
2022/10/14 11:12:01;;;;;;;;;;;15.00;99.90;;;;;;8380247;28;19925;-85
2022/10/14 11:16:03;;;;;;;;;;;15.00;99.90;;;;;;8387137;28;20351;-85
2022/10/14 11:20:10;;;;;;;;;;;15.00;99.90;;;;;;8392738;28;19924;-84
2022/10/14 11:24:19;;;;;;;;;;;15.00;99.90;;;;;;8390195;28;19967;-83
2022/10/14 11:28:28;;;;;;;;;;;15.00;99.90;;;;;;8392878;28;20352;-84
2022/10/14 11:32:55;;;;;;;;;;;15.00;99.90;;;;;;8396219;28;19924;-83
2022/10/14 11:36:57;;;;;;;;;;;15.00;99.90;;;;;;8372474;28;19947;-84
2022/10/14 11:41:09;;;;;;;;;;;15.10;99.90;;;;;;8391494;28;20008;-83
2022/10/14 11:45:11;;;;;;;;;;;15.10;99.90;;;;;;8400131;28;19931;-83
2022/10/14 11:49:36;;;;;;;;;;;15.10;99.90;;;;;;8391067;28;20007;-84
2022/10/14 11:53:44;;;;;;;;;;;15.20;99.90;;;;;;8387161;28;20349;-84
2022/10/14 11:57:47;;;;;;;;;;;15.20;99.90;;;;;;8367104;28;20493;-84
2022/10/14 12:01:51;;;;;;;;;;;15.30;99.90;;;;;;8372079;28;19929;-83
2022/10/14 12:06:00;;;;;;;;;;;15.30;99.90;;;;;;8373357;28;19929;-84
2022/10/14 12:10:28;;;;;;;;;;;15.30;99.90;;;;;;8367092;28;19982;-84
2022/10/14 12:14:44;;;;;;;;;;;15.30;99.90;;;;;;8346482;28;20283;-84
2022/10/14 12:18:48;;;;;;;;;;;15.40;99.90;;;;;;8366530;28;20357;-83
2022/10/14 12:22:50;;;;;;;;;;;15.40;99.90;;;;;;8371752;28;20067;-82
2022/10/14 12:27:03;;;;;;;;;;;15.50;99.90;;;;;;8355666;28;19931;-84
2022/10/14 12:31:24;;;;;;;;;;;15.40;99.90;;;;;;8367914;28;20370;-83
2022/10/14 12:35:45;;;;;;;;;;;15.40;99.90;;;;;;8359575;28;20012;-81
2022/10/14 12:39:46;;;;;;;;;;;15.40;99.90;;;;;;8368706;28;19925;-82
2022/10/14 12:43:58;;;;;;;;;;;15.40;99.90;;;;;;8386647;28;19934;-82
2022/10/14 12:48:06;;;;;;;;;;;15.40;99.90;;;;;;8394366;28;19949;-81
2022/10/14 12:52:07;;;;;;;;;;;15.50;99.90;;;;;;8387907;28;19933;-83
2022/10/14 12:56:24;;;;;;;;;;;15.50;99.90;;;;;;8378301;28;20375;-80
2022/10/14 13:00:30;;;;;;;;;;;15.50;99.90;;;;;;8369447;28;20237;-82
2022/10/14 13:04:32;;;;;;;;;;;15.60;99.90;;;;;;8362997;28;19925;-82
2022/10/14 13:08:34;;;;;;;;;;;15.50;99.90;;;;;;8378547;28;19925;-82
2022/10/14 13:12:35;;;;;;;;;;;15.50;99.90;;;;;;8374298;28;19990;-82
2022/10/14 13:16:37;;;;;;;;;;;15.60;99.90;;;;;;8374217;28;19946;-84
2022/10/14 13:20:44;;;;;;;;;;;15.50;99.90;;;;;;8376593;28;20489;-83
2022/10/14 13:24:46;;;;;;;;;;;15.50;99.90;;;;;;8371509;28;19928;-81
2022/10/14 13:28:57;;;;;;;;;;;15.60;99.90;;;;;;8359221;28;20348;-80
2022/10/14 13:33:03;;;;;;;;;;;15.50;99.90;;;;;;8368257;28;19928;-81
2022/10/14 13:37:04;;;;;;;;;;;15.50;99.90;;;;;;8365569;28;19932;-83
2022/10/14 13:41:13;;;;;;;;;;;15.50;99.90;;;;;;8374644;28;20334;-82
2022/10/14 13:45:15;;;;;;;;;;;15.50;99.90;;;;;;8359980;28;20299;-83
2022/10/14 13:49:19;;;;;;;;;;;15.40;99.90;;;;;;8383256;28;19931;-82
2022/10/14 13:53:21;;;;;;;;;;;15.40;99.90;;;;;;8374735;28;19967;-81
2022/10/14 13:57:23;;;;;;;;;;;15.40;99.90;;;;;;8368829;28;19937;-81
2022/10/14 14:01:46;;;;;;;;;;;15.40;99.90;;;;;;8374996;28;19932;-81
2022/10/14 14:05:48;;;;;;;;;;;15.50;99.90;;;;;;8376433;28;19928;-83
2022/10/14 14:09:51;;;;;;;;;;;15.50;99.90;;;;;;8378766;28;19932;-82
2022/10/14 14:14:02;;;;;;;;;;;15.60;99.90;;;;;;8377934;28;19924;-83
2022/10/14 14:18:03;;;;;;;;;;;15.70;99.90;;;;;;8369416;28;19938;-81
2022/10/14 14:22:19;;;;;;;;;;;15.80;99.90;;;;;;8354499;28;19981;-80
2022/10/14 14:26:26;;;;;;;;;;;15.80;99.90;;;;;;8356075;28;19924;-80
2022/10/14 14:30:29;;;;;;;;;;;15.80;99.90;;;;;;8374884;28;20380;-82
2022/10/14 14:34:31;;;;;;;;;;;15.80;99.90;;;;;;8370848;28;19925;-82
2022/10/14 14:38:34;;;;;;;;;;;16.00;99.90;;;;;;8367324;28;19968;-83
2022/10/14 14:42:37;;;;;;;;;;;16.10;99.90;;;;;;8369943;28;19931;-81
2022/10/14 14:46:39;;;;;;;;;;;16.30;99.90;;;;;;8373056;28;19924;-81
2022/10/14 14:50:42;;;;;;;;;;;16.30;99.90;;;;;;8366110;28;19940;-80
2022/10/14 14:54:45;;;;;;;;;;;16.20;99.90;;;;;;8360113;28;19931;-82
2022/10/14 14:58:49;;;;;;;;;;;16.20;99.90;;;;;;8371626;28;19947;-81
2022/10/14 15:02:57;;;;;;;;;;;16.20;99.90;;;;;;8374510;28;19924;-81
2022/10/14 15:06:59;;;;;;;;;;;16.20;99.90;;;;;;8367055;28;20352;-83
2022/10/14 15:11:02;;;;;;;;;;;16.20;99.90;;;;;;8365483;28;20331;-82
2022/10/14 15:15:04;;;;;;;;;;;16.20;99.90;;;;;;8348863;28;19930;-82
2022/10/14 15:19:19;;;;;;;;;;;16.20;99.90;;;;;;8361905;28;19924;-83
2022/10/14 15:23:39;;;;;;;;;;;16.20;99.90;;;;;;8374180;28;19928;-83
2022/10/14 15:27:41;;;;;;;;;;;16.20;99.90;;;;;;8367783;28;20007;-82
2022/10/14 15:32:05;;;;;;;;;;;16.20;99.90;;;;;;8360918;28;20011;-83
2022/10/14 15:36:10;;;;;;;;;;;16.10;99.90;;;;;;8370838;28;20636;-82
2022/10/14 15:40:13;;;;;;;;;;;16.10;99.90;;;;;;8359579;28;19925;-83
2022/10/14 15:44:15;;;;;;;;;;;16.10;99.90;;;;;;8362100;28;19939;-81
2022/10/14 15:48:17;;;;;;;;;;;16.10;99.90;;;;;;8369740;28;19933;-83
2022/10/14 15:52:19;;;;;;;;;;;16.00;99.90;;;;;;8366641;28;19931;-83
2022/10/14 15:56:25;;;;;;;;;;;16.00;99.90;;;;;;8361775;28;19935;-83
2022/10/14 16:00:26;;;;;;;;;;;15.90;99.90;;;;;;8349309;28;19932;-83
2022/10/14 16:04:28;;;;;;;;;;;15.80;99.90;;;;;;8363796;28;20921;-83
2022/10/14 16:08:29;;;;;;;;;;;15.80;99.90;;;;;;8371815;28;20353;-82
2022/10/14 16:12:31;;;;;;;;;;;15.80;99.90;;;;;;8360777;28;19939;-83
2022/10/14 16:16:39;;;;;;;;;;;15.80;99.90;;;;;;8363614;28;19924;-83
2022/10/14 16:20:40;;;;;;;;;;;15.70;99.90;;;;;;8352055;28;19928;-82
2022/10/14 16:24:42;;;;;;;;;;;15.70;99.90;;;;;;8352165;28;19931;-83
2022/10/14 16:28:44;;;;;;;;;;;15.70;99.90;;;;;;8372399;28;19924;-83
2022/10/14 16:32:45;;;;;;;;;;;15.60;99.90;;;;;;8362182;28;19932;-82
2022/10/14 16:36:48;;;;;;;;;;;15.50;99.90;;;;;;8369870;28;19939;-84
2022/10/14 16:40:54;;;;;;;;;;;15.50;99.90;;;;;;8365208;28;20378;-83
2022/10/14 16:44:55;;;;;;;;;;;15.40;99.90;;;;;;8368569;28;19943;-82
2022/10/14 16:48:57;;;;;;;;;;;15.40;99.90;;;;;;8367378;28;19931;-83
2022/10/14 16:57:19;;;;;;;;;;;15.30;99.90;;;;;;8368095;28;20139;-83
2022/10/14 17:01:20;;;;;;;;;;;15.20;99.90;;;;;;8376489;28;19924;-83
2022/10/14 17:05:22;;;;;;;;;;;15.20;99.90;;;;;;8382343;28;20576;-83
2022/10/14 17:09:23;;;;;;;;;;;15.20;99.90;;;;;;8379113;28;19925;-83
2022/10/14 17:13:30;;;;;;;;;;;15.20;99.90;;;;;;8369212;28;19929;-83
2022/10/14 17:17:32;;;;;;;;;;;15.20;99.90;;;;;;8368974;28;20380;-84
2022/10/14 17:21:33;;;;;;;;;;;15.20;99.90;;;;;;8354085;28;19924;-83
2022/10/14 17:25:35;;;;;;;;;;;15.10;99.90;;;;;;8370244;28;20291;-83
2022/10/14 17:29:36;;;;;;;;;;;15.10;99.90;;;;;;8368888;28;19924;-83
2022/10/14 17:33:39;;;;;;;;;;;15.10;99.90;;;;;;8375260;28;19925;-83
2022/10/14 17:37:41;;;;;;;;;;;15.00;99.90;;;;;;8384039;28;19924;-83
2022/10/14 17:41:42;;;;;;;;;;;14.90;99.90;;;;;;8381688;28;19930;-83
2022/10/14 17:45:44;;;;;;;;;;;14.90;99.90;;;;;;8380298;28;19925;-83
2022/10/14 17:49:46;;;;;;;;;;;14.90;99.90;;;;;;8376351;28;20266;-83
2022/10/14 17:53:47;;;;;;;;;;;14.80;99.90;;;;;;8375667;28;19928;-83
2022/10/14 17:57:49;;;;;;;;;;;14.80;99.90;;;;;;8379222;28;19932;-83
2022/10/14 18:01:51;;;;;;;;;;;14.80;99.90;;;;;;8377345;28;19929;-83
2022/10/14 18:06:16;;;;;;;;;;;14.80;99.90;;;;;;8381012;28;19928;-83
2022/10/14 18:10:18;;;;;;;;;;;14.70;99.90;;;;;;8367487;28;19928;-83
2022/10/14 18:14:19;;;;;;;;;;;14.80;99.90;;;;;;8367424;28;19931;-83
2022/10/14 18:18:22;;;;;;;;;;;14.80;99.90;;;;;;8382420;28;19924;-84
2022/10/14 18:22:23;;;;;;;;;;;14.70;99.90;;;;;;8377020;28;20295;-83
2022/10/14 18:26:25;;;;;;;;;;;14.70;99.90;;;;;;8375178;28;20433;-83
2022/10/14 18:30:27;;;;;;;;;;;14.70;99.90;;;;;;8380279;28;20303;-83
2022/10/14 18:34:28;;;;;;;;;;;14.70;99.90;;;;;;8374136;28;19960;-83
2022/10/14 18:38:30;;;;;;;;;;;14.70;99.90;;;;;;8378909;28;19939;-83
2022/10/14 18:42:32;;;;;;;;;;;14.70;99.90;;;;;;8378601;28;19928;-83
2022/10/14 18:46:34;;;;;;;;;;;14.70;99.90;;;;;;8376990;28;19932;-83
2022/10/14 18:50:36;;;;;;;;;;;14.60;99.90;;;;;;8379834;28;19939;-83
2022/10/14 18:54:38;;;;;;;;;;;14.60;99.90;;;;;;8372412;28;19932;-83
2022/10/14 18:58:40;;;;;;;;;;;14.50;99.90;;;;;;8381245;28;19928;-83
2022/10/14 19:02:42;;;;;;;;;;;14.50;99.90;;;;;;8383318;28;19954;-83
2022/10/14 19:06:47;;;;;;;;;;;14.50;99.90;;;;;;8372663;28;19930;-83
2022/10/14 19:10:49;;;;;;;;;;;14.50;99.90;;;;;;8390628;28;19933;-83
2022/10/14 19:14:51;;;;;;;;;;;14.40;99.90;;;;;;8357380;28;19924;-83
2022/10/14 19:18:53;;;;;;;;;;;14.40;99.90;;;;;;8376551;28;20271;-84
2022/10/14 19:22:55;;;;;;;;;;;14.40;99.90;;;;;;8357705;28;19954;-83
2022/10/14 19:26:57;;;;;;;;;;;14.30;99.90;;;;;;8369564;28;19967;-83
2022/10/14 19:36:02;;;;;;;;;;;14.30;99.90;;;;;;8384454;28;19959;-83
2022/10/14 19:45:07;;;;;;;;;;;14.20;99.90;;;;;;8389860;28;19959;-83
2022/10/14 19:49:10;;;;;;;;;;;14.20;99.90;;;;;;8388587;28;19930;-83
2022/10/14 19:53:12;;;;;;;;;;;14.10;99.90;;;;;;8393207;28;20394;-83
2022/10/14 19:57:13;;;;;;;;;;;14.10;99.90;;;;;;8398965;28;20004;-83
2022/10/14 20:01:16;;;;;;;;;;;14.10;99.90;;;;;;8392442;28;20334;-83
2022/10/14 20:05:17;;;;;;;;;;;14.00;99.90;;;;;;8386316;28;20443;-83
2022/10/14 20:09:19;;;;;;;;;;;14.00;99.90;;;;;;8398185;28;19924;-84
2022/10/14 20:13:21;;;;;;;;;;;13.90;99.90;;;;;;8395325;28;20011;-84
2022/10/14 20:17:24;;;;;;;;;;;13.80;99.90;;;;;;8392867;28;20126;-84
2022/10/14 20:21:28;;;;;;;;;;;13.80;99.90;;;;;;8380597;28;19931;-84
2022/10/14 20:25:30;;;;;;;;;;;13.80;99.90;;;;;;8398476;28;19967;-83
2022/10/14 20:29:33;;;;;;;;;;;13.70;99.90;;;;;;8395566;28;19925;-84
2022/10/14 20:33:35;;;;;;;;;;;13.60;99.90;;;;;;8393403;28;19964;-84
2022/10/14 20:37:37;;;;;;;;;;;13.60;99.90;;;;;;8380241;28;19961;-83
2022/10/14 20:41:38;;;;;;;;;;;13.60;99.90;;;;;;8385618;28;19925;-84
2022/10/14 20:45:40;;;;;;;;;;;13.50;99.90;;;;;;8384688;28;19961;-84
2022/10/14 20:49:41;;;;;;;;;;;13.50;99.90;;;;;;8372343;28;20015;-83
2022/10/14 20:53:43;;;;;;;;;;;13.50;99.90;;;;;;8393210;28;19925;-83
2022/10/14 20:57:45;;;;;;;;;;;13.40;99.90;;;;;;8380029;28;20082;-84
2022/10/14 21:01:46;;;;;;;;;;;13.40;99.90;;;;;;8411022;28;20015;-83
2022/10/14 21:05:48;;;;;;;;;;;13.30;99.90;;;;;;8397351;28;19924;-83
2022/10/14 21:09:50;;;;;;;;;;;13.30;99.90;;;;;;8397280;28;19987;-84
2022/10/14 21:13:53;;;;;;;;;;;13.30;99.90;;;;;;8383500;28;20004;-83
2022/10/14 21:17:55;;;;;;;;;;;13.30;99.90;;;;;;8379374;28;19993;-84
2022/10/14 21:21:56;;;;;;;;;;;13.20;99.90;;;;;;8428214;28;19963;-84
2022/10/14 21:25:58;;;;;;;;;;;13.20;99.90;;;;;;8394299;28;20359;-84
2022/10/14 21:29:59;;;;;;;;;;;13.20;99.90;;;;;;8380838;28;20035;-84
2022/10/14 21:34:01;;;;;;;;;;;13.20;99.90;;;;;;8368889;28;19999;-83
2022/10/14 21:43:10;;;;;;;;;;;13.20;99.90;;;;;;8402427;28;19951;-84
2022/10/14 21:47:12;;;;;;;;;;;13.20;99.90;;;;;;8395293;28;20019;-84
2022/10/14 21:51:15;;;;;;;;;;;13.20;99.90;;;;;;8395232;28;19929;-86
2022/10/14 21:55:16;;;;;;;;;;;13.20;99.90;;;;;;8384333;28;20411;-84
2022/10/14 21:59:18;;;;;;;;;;;13.10;99.90;;;;;;8403229;28;19924;-84
2022/10/14 22:03:20;;;;;;;;;;;13.10;99.90;;;;;;8402105;28;19928;-84
2022/10/14 22:07:21;;;;;;;;;;;13.10;99.90;;;;;;8406566;28;20026;-83
2022/10/14 22:11:24;;;;;;;;;;;13.10;99.90;;;;;;8399414;28;19929;-84
2022/10/14 22:15:54;;;;;;;;;;;13.00;99.90;;;;;;8389383;28;20019;-84
2022/10/14 22:19:56;;;;;;;;;;;13.00;99.90;;;;;;8396998;28;20018;-84
2022/10/14 22:23:58;;;;;;;;;;;13.00;99.90;;;;;;8394869;28;19959;-84
2022/10/14 22:28:01;;;;;;;;;;;12.90;99.90;;;;;;8404920;28;20291;-84
2022/10/14 22:32:02;;;;;;;;;;;12.90;99.90;;;;;;8384490;28;19929;-84
2022/10/14 22:51:15;;;;;;;;;;;12.70;99.90;;;;;;8395544;28;19927;-84
2022/10/14 22:55:17;;;;;;;;;;;12.70;99.90;;;;;;8384980;28;19978;-84
2022/10/14 22:59:19;;;;;;;;;;;12.70;99.90;;;;;;8395462;28;19925;-83
2022/10/14 23:03:20;;;;;;;;;;;12.60;99.90;;;;;;8392666;28;19924;-83
2022/10/14 23:07:22;;;;;;;;;;;12.60;99.90;;;;;;8390046;28;20030;-83
2022/10/14 23:11:24;;;;;;;;;;;12.50;99.90;;;;;;8410074;28;20020;-83
2022/10/14 23:15:25;;;;;;;;;;;12.50;99.90;;;;;;8388162;28;20015;-84
2022/10/14 23:19:27;;;;;;;;;;;12.40;99.90;;;;;;8378434;28;19924;-84
2022/10/14 23:23:29;;;;;;;;;;;12.40;99.90;;;;;;8393896;28;20019;-83
2022/10/14 23:27:30;;;;;;;;;;;12.40;99.90;;;;;;8404908;28;20014;-83
2022/10/14 23:31:35;;;;;;;;;;;12.40;99.90;;;;;;8382569;28;19963;-83
2022/10/14 23:35:37;;;;;;;;;;;12.40;99.90;;;;;;8396597;28;19968;-84
2022/10/14 23:39:39;;;;;;;;;;;12.40;99.90;;;;;;8383350;28;19924;-84
2022/10/14 23:43:41;;;;;;;;;;;12.50;99.90;;;;;;8374780;28;19935;-83
2022/10/14 23:47:42;;;;;;;;;;;12.50;99.90;;;;;;8393091;28;19960;-84
2022/10/14 23:51:44;;;;;;;;;;;12.50;99.90;;;;;;8388287;28;19929;-83
2022/10/14 23:55:46;;;;;;;;;;;12.50;99.90;;;;;;8372617;28;19933;-84
2022/10/14 23:59:47;;;;;;;;;;;12.50;99.90;;;;;;8387044;28;19931;-84
